createdAt,value
2019-05-16T00:03:01.317Z,90.70
2019-05-16T00:05:31.123Z,90.50
2019-05-16T00:08:12.416Z,90.60
2019-05-16T00:10:40.034Z,91.00
2019-05-16T00:13:14.651Z,91.30
2019-05-16T00:15:48.093Z,91.40
2019-05-16T00:18:17.841Z,91.50
2019-05-16T00:20:49.122Z,91.70
2019-05-16T00:23:18.252Z,91.80
2019-05-16T00:26:47.867Z,91.60
2019-05-16T00:29:28.703Z,91.50
2019-05-16T00:35:28.589Z,91.30
2019-05-16T00:38:38.003Z,91.50
2019-05-16T00:41:09.426Z,91.80
2019-05-16T00:43:59.239Z,91.90
2019-05-16T00:46:33.947Z,92.10
2019-05-16T00:49:08.116Z,92.60
2019-05-16T00:52:23.572Z,92.60
2019-05-16T00:55:00.916Z,92.70
2019-05-16T00:57:32.247Z,93.00
2019-05-16T01:00:49.439Z,92.60
2019-05-16T01:03:20.419Z,92.30
2019-05-16T01:05:49.238Z,92.10
2019-05-16T01:08:25.164Z,92.20
2019-05-16T01:10:59.928Z,92.20
2019-05-16T01:14:10.955Z,92.10
2019-05-16T01:16:39.683Z,92.10
2019-05-16T01:19:14.145Z,91.60
2019-05-16T01:21:48.235Z,91.50
2019-05-16T01:24:18.618Z,91.60
2019-05-16T01:26:52.908Z,91.60
2019-05-16T01:29:21.805Z,91.50
2019-05-16T01:31:52.538Z,91.60
2019-05-16T01:34:30.252Z,92.50
2019-05-16T01:36:59.185Z,92.60
2019-05-16T01:39:30.848Z,92.90
2019-05-16T01:42:02.649Z,92.80
2019-05-16T01:44:30.447Z,92.70
2019-05-16T01:47:03.347Z,92.60
2019-05-16T01:49:35.232Z,92.40
2019-05-16T01:52:08.514Z,92.80
2019-05-16T01:54:49.244Z,92.80
2019-05-16T01:57:20.999Z,92.70
2019-05-16T01:59:48.980Z,92.70
2019-05-16T02:02:20.543Z,92.60
2019-05-16T02:05:49.257Z,92.60
2019-05-16T02:08:23.855Z,92.80
2019-05-16T02:10:52.642Z,93.40
2019-05-16T02:13:28.633Z,92.60
2019-05-16T02:15:59.305Z,92.90
2019-05-16T02:18:33.952Z,93.60
2019-05-16T02:21:07.736Z,93.40
2019-05-16T02:23:38.204Z,93.30
2019-05-16T02:26:13.043Z,93.40
2019-05-16T02:32:01.578Z,93.20
2019-05-16T02:34:53.420Z,93.10
2019-05-16T02:37:34.412Z,92.90
2019-05-16T02:40:01.228Z,92.80
2019-05-16T02:42:36.277Z,92.90
2019-05-16T02:45:33.824Z,93.00
2019-05-16T02:48:05.744Z,93.40
2019-05-16T02:50:41.433Z,94.00
2019-05-16T02:53:13.504Z,94.10
2019-05-16T02:55:44.698Z,94.10
2019-05-16T02:58:22.812Z,94.00
2019-05-16T03:00:53.902Z,94.00
2019-05-16T03:03:31.680Z,93.80
2019-05-16T03:06:01.465Z,93.90
2019-05-16T03:08:32.166Z,94.40
2019-05-16T03:11:04.297Z,94.80
2019-05-16T03:13:35.968Z,94.90
2019-05-16T03:16:11.763Z,94.70
2019-05-16T03:18:41.648Z,94.70
2019-05-16T03:21:13.272Z,94.70
2019-05-16T03:23:50.592Z,94.70
2019-05-16T03:26:20.970Z,94.40
2019-05-16T03:28:52.363Z,95.40
2019-05-16T03:31:24.883Z,95.40
2019-05-16T03:33:59.850Z,95.50
2019-05-16T03:36:34.776Z,95.60
2019-05-16T03:39:05.194Z,95.70
2019-05-16T03:41:33.779Z,95.50
2019-05-16T03:44:02.424Z,95.20
2019-05-16T03:46:41.372Z,95.20
2019-05-16T03:49:11.531Z,95.10
2019-05-16T03:51:43.420Z,94.90
2019-05-16T03:54:12.624Z,95.20
2019-05-16T03:56:51.383Z,95.30
2019-05-16T03:59:21.553Z,95.20
2019-05-16T04:01:51.195Z,94.90
2019-05-16T04:04:27.549Z,95.20
2019-05-16T04:07:53.045Z,95.20
2019-05-16T04:10:25.321Z,95.30
2019-05-16T04:12:56.573Z,95.30
2019-05-16T04:15:25.299Z,95.60
2019-05-16T04:17:53.954Z,95.20
2019-05-16T04:20:23.311Z,95.10
2019-05-16T04:23:01.601Z,95.10
2019-05-16T04:25:33.299Z,93.80
2019-05-16T04:28:07.085Z,91.60
2019-05-16T04:30:41.520Z,89.50
2019-05-16T04:33:17.297Z,86.00
2019-05-16T04:35:51.808Z,81.90
2019-05-16T04:38:31.590Z,76.00
2019-05-16T04:40:55.576Z,70.80
2019-05-16T04:43:26.228Z,67.90
2019-05-16T04:45:56.045Z,63.70
2019-05-16T04:48:24.631Z,59.30
2019-05-16T04:50:54.325Z,57.00
2019-05-16T04:53:25.742Z,54.70
2019-05-16T04:56:03.768Z,53.40
2019-05-16T04:58:40.729Z,52.80
2019-05-16T05:01:11.076Z,51.30
2019-05-16T05:04:00.601Z,48.80
2019-05-16T05:06:20.611Z,46.70
2019-05-16T05:08:57.107Z,45.90
2019-05-16T05:11:25.099Z,45.10
2019-05-16T05:14:00.939Z,44.20
2019-05-16T05:16:35.525Z,43.10
2019-05-16T05:19:20.034Z,41.00
2019-05-16T05:21:51.423Z,38.90
2019-05-16T05:24:43.910Z,38.00
2019-05-16T05:27:15.505Z,36.50
2019-05-16T05:29:55.408Z,35.20
2019-05-16T05:32:50.248Z,36.80
2019-05-16T05:35:27.253Z,37.50
2019-05-16T05:38:00.383Z,38.40
2019-05-16T05:40:29.671Z,46.40
2019-05-16T05:42:59.914Z,46.10
2019-05-16T05:45:34.918Z,51.70
2019-05-16T05:48:05.723Z,57.60
2019-05-16T05:50:41.358Z,59.90
2019-05-16T05:53:10.285Z,57.00
2019-05-16T05:55:50.659Z,57.40
2019-05-16T05:58:20.829Z,55.70
2019-05-16T06:00:55.392Z,58.00
2019-05-16T06:03:27.124Z,52.80
2019-05-16T06:05:56.299Z,48.60
2019-05-16T06:08:27.645Z,46.90
2019-05-16T06:11:20.316Z,51.30
2019-05-16T06:13:51.194Z,54.70
2019-05-16T06:16:22.027Z,52.60
2019-05-16T06:19:00.930Z,51.70
2019-05-16T06:21:46.050Z,52.00
2019-05-16T06:24:25.059Z,56.30
2019-05-16T06:26:53.877Z,54.40
2019-05-16T06:29:30.804Z,54.90
2019-05-16T06:32:10.165Z,52.70
2019-05-16T06:34:40.470Z,48.80
2019-05-16T06:37:09.819Z,48.80
2019-05-16T06:39:45.557Z,49.20
2019-05-16T06:42:22.078Z,50.90
2019-05-16T06:44:56.639Z,49.90
2019-05-16T06:47:25.287Z,51.20
2019-05-16T06:50:05.885Z,51.70
2019-05-16T06:52:34.915Z,46.40
2019-05-16T06:55:10.333Z,46.50
2019-05-16T06:57:50.479Z,42.90
2019-05-16T07:00:25.097Z,42.00
2019-05-16T07:03:00.419Z,38.60
2019-05-16T07:05:31.960Z,41.90
2019-05-16T07:08:11.170Z,43.60
2019-05-16T07:10:41.593Z,43.70
2019-05-16T07:13:13.467Z,46.80
2019-05-16T07:15:44.773Z,45.00
2019-05-16T07:18:21.475Z,41.10
2019-05-16T07:20:56.114Z,39.60
2019-05-16T07:23:29.858Z,38.00
2019-05-16T07:26:17.443Z,35.80
2019-05-16T07:29:01.281Z,39.20
2019-05-16T07:31:30.212Z,39.20
2019-05-16T07:34:05.125Z,44.30
2019-05-16T07:36:36.948Z,45.60
2019-05-16T07:39:06.172Z,41.00
2019-05-16T07:41:35.347Z,46.00
2019-05-16T07:44:04.094Z,45.40
2019-05-16T07:46:51.624Z,42.40
2019-05-16T07:49:21.709Z,40.30
2019-05-16T07:51:53.181Z,43.20
2019-05-16T07:54:23.996Z,45.40
2019-05-16T07:56:59.419Z,42.80
2019-05-16T07:59:29.927Z,44.90
2019-05-16T08:02:04.783Z,47.40
2019-05-16T08:04:33.612Z,48.10
2019-05-16T08:07:07.647Z,46.00
2019-05-16T08:10:41.319Z,45.00
2019-05-16T08:13:11.910Z,44.70
2019-05-16T08:15:40.678Z,41.00
2019-05-16T08:18:13.325Z,39.60
2019-05-16T08:20:41.943Z,39.10
2019-05-16T08:23:36.839Z,44.30
2019-05-16T08:26:43.153Z,48.90
2019-05-16T08:29:13.406Z,48.30
2019-05-16T08:31:43.446Z,47.70
2019-05-16T08:34:12.500Z,46.10
2019-05-16T08:36:51.855Z,44.00
2019-05-16T08:39:21.569Z,44.00
2019-05-16T08:41:51.918Z,44.80
2019-05-16T08:44:26.665Z,43.10
2019-05-16T08:46:58.329Z,42.80
2019-05-16T08:49:30.729Z,40.40
2019-05-16T08:52:01.331Z,39.10
2019-05-16T08:54:31.765Z,36.10
2019-05-16T08:57:26.098Z,34.40
2019-05-16T08:59:41.081Z,33.90
2019-05-16T09:02:15.409Z,33.00
2019-05-16T09:04:53.271Z,30.70
2019-05-16T09:07:22.578Z,31.40
2019-05-16T09:09:59.774Z,34.80
2019-05-16T09:12:29.377Z,36.40
2019-05-16T09:15:28.966Z,38.90
2019-05-16T09:18:19.923Z,37.60
2019-05-16T09:20:52.582Z,40.60
2019-05-16T09:23:26.836Z,37.00
2019-05-16T09:25:58.497Z,36.50
2019-05-16T09:28:28.248Z,36.80
2019-05-16T09:30:59.256Z,39.10
2019-05-16T09:33:31.244Z,34.90
2019-05-16T09:36:02.874Z,37.10
2019-05-16T09:38:38.059Z,43.20
2019-05-16T09:41:08.521Z,41.80
2019-05-16T09:43:43.140Z,40.00
2019-05-16T09:46:16.974Z,41.40
2019-05-16T09:49:11.649Z,40.40
2019-05-16T09:51:21.537Z,41.70
2019-05-16T09:53:56.688Z,44.90
2019-05-16T09:56:27.002Z,44.40
2019-05-16T09:58:57.405Z,45.50
2019-05-16T10:01:27.732Z,45.40
2019-05-16T10:04:06.514Z,43.20
2019-05-16T10:06:36.922Z,46.30
2019-05-16T10:09:08.794Z,47.60
2019-05-16T10:11:42.262Z,46.90
2019-05-16T10:14:11.492Z,49.00
2019-05-16T10:16:47.756Z,50.10
2019-05-16T10:19:16.970Z,49.00
2019-05-16T10:22:10.696Z,50.30
2019-05-16T10:24:39.382Z,50.70
2019-05-16T10:27:10.704Z,50.60
2019-05-16T10:29:48.708Z,51.40
2019-05-16T10:32:19.303Z,48.50
2019-05-16T10:38:20.070Z,50.00
2019-05-16T10:40:58.691Z,50.60
2019-05-16T10:43:27.602Z,50.20
2019-05-16T10:46:17.952Z,47.90
2019-05-16T10:52:07.072Z,48.80
2019-05-16T10:54:37.440Z,49.70
2019-05-16T10:57:21.569Z,49.80
2019-05-16T11:00:06.809Z,49.10
2019-05-16T11:02:29.966Z,49.80
2019-05-16T11:05:20.630Z,50.50
2019-05-16T11:07:36.870Z,48.10
2019-05-16T11:10:08.135Z,52.20
2019-05-16T11:12:50.675Z,49.50
2019-05-16T11:15:17.230Z,49.00
2019-05-16T11:17:48.852Z,48.90
2019-05-16T11:20:40.015Z,48.60
2019-05-16T11:23:22.257Z,50.30
2019-05-16T11:26:09.553Z,48.10
2019-05-16T11:28:41.282Z,47.10
2019-05-16T11:31:46.931Z,47.60
2019-05-16T11:34:21.472Z,47.00
2019-05-16T11:36:56.998Z,48.60
2019-05-16T11:39:25.975Z,47.50
2019-05-16T11:41:58.526Z,46.50
2019-05-16T11:44:31.348Z,48.40
2019-05-16T11:47:08.297Z,46.50
2019-05-16T11:49:39.296Z,47.60
2019-05-16T11:52:07.867Z,45.60
2019-05-16T11:54:49.113Z,46.10
2019-05-16T11:57:19.886Z,45.70
2019-05-16T11:59:49.165Z,46.90
2019-05-16T12:02:18.053Z,45.50
2019-05-16T12:04:52.996Z,44.30
2019-05-16T12:07:33.318Z,44.20
2019-05-16T12:10:29.244Z,44.00
2019-05-16T12:13:28.173Z,42.30
2019-05-16T12:15:56.610Z,43.70
2019-05-16T12:18:26.755Z,44.40
2019-05-16T12:20:56.573Z,45.30
2019-05-16T12:23:27.754Z,46.30
2019-05-16T12:26:02.436Z,45.50
2019-05-16T12:28:32.180Z,45.90
2019-05-16T12:31:03.919Z,48.60
2019-05-16T12:33:38.359Z,49.90
2019-05-16T12:36:12.980Z,48.20
2019-05-16T12:38:47.524Z,49.50
2019-05-16T12:41:20.850Z,46.00
2019-05-16T12:43:53.637Z,46.60
2019-05-16T12:46:23.867Z,47.50
2019-05-16T12:48:58.200Z,47.50
2019-05-16T12:51:27.097Z,48.40
2019-05-16T12:54:01.783Z,49.10
2019-05-16T12:56:32.445Z,48.30
2019-05-16T12:59:28.123Z,47.40
2019-05-16T13:02:00.209Z,48.10
2019-05-16T13:04:57.116Z,48.70
2019-05-16T13:07:27.405Z,49.70
2019-05-16T13:10:02.405Z,49.10
2019-05-16T13:12:31.168Z,47.70
2019-05-16T13:15:07.072Z,47.10
2019-05-16T13:17:37.167Z,50.30
2019-05-16T13:20:14.129Z,48.40
2019-05-16T13:22:42.802Z,49.70
2019-05-16T13:25:14.263Z,49.70
2019-05-16T13:27:47.453Z,50.80
2019-05-16T13:30:21.672Z,51.30
2019-05-16T13:32:50.276Z,51.70
2019-05-16T13:35:22.380Z,52.30
2019-05-16T13:37:58.011Z,51.30
2019-05-16T13:40:32.556Z,51.50
2019-05-16T13:43:09.498Z,50.50
2019-05-16T13:45:37.899Z,51.90
2019-05-16T13:48:12.586Z,49.90
2019-05-16T13:50:41.434Z,51.60
2019-05-16T13:53:13.395Z,52.00
2019-05-16T13:55:48.009Z,50.80
2019-05-16T13:58:17.913Z,52.00
2019-05-16T14:00:50.527Z,51.60
2019-05-16T14:03:27.531Z,51.10
2019-05-16T14:05:58.029Z,50.90
2019-05-16T14:08:26.853Z,51.40
2019-05-16T14:11:00.748Z,52.10
2019-05-16T14:13:27.862Z,50.30
2019-05-16T14:15:58.445Z,51.40
2019-05-16T14:18:29.805Z,50.40
2019-05-16T14:21:00.697Z,51.10
2019-05-16T14:23:38.230Z,50.90
2019-05-16T14:26:13.143Z,50.00
2019-05-16T14:28:44.512Z,48.50
2019-05-16T14:31:12.428Z,50.10
2019-05-16T14:33:47.526Z,50.10
2019-05-16T14:36:19.317Z,52.00
2019-05-16T14:38:54.147Z,48.20
2019-05-16T14:41:37.361Z,48.40
2019-05-16T14:44:09.546Z,49.40
2019-05-16T14:47:23.586Z,49.60
2019-05-16T14:49:58.524Z,50.70
2019-05-16T14:52:36.648Z,51.00
2019-05-16T14:55:08.971Z,50.40
2019-05-16T14:57:37.605Z,50.30
2019-05-16T15:00:08.662Z,50.60
2019-05-16T15:02:38.710Z,50.40
2019-05-16T15:05:24.510Z,51.20
2019-05-16T15:07:56.938Z,51.60
2019-05-16T15:10:28.893Z,52.00
2019-05-16T15:12:59.655Z,51.50
2019-05-16T15:19:25.871Z,53.00
2019-05-16T15:22:02.890Z,53.90
2019-05-16T15:24:36.911Z,55.70
2019-05-16T15:27:07.916Z,55.10
2019-05-16T15:29:37.759Z,55.20
2019-05-16T15:32:08.487Z,55.00
2019-05-16T15:34:47.665Z,55.50
2019-05-16T15:37:17.545Z,55.50
2019-05-16T15:39:54.331Z,56.20
2019-05-16T15:43:11.570Z,55.70
2019-05-16T15:45:49.900Z,55.50
2019-05-16T15:48:37.456Z,55.90
2019-05-16T15:51:08.986Z,56.80
2019-05-16T15:53:44.159Z,55.80
2019-05-16T15:56:13.219Z,55.20
2019-05-16T15:58:52.016Z,55.80
2019-05-16T16:01:26.898Z,56.00
2019-05-16T16:04:00.702Z,55.80
2019-05-16T16:06:30.170Z,54.20
2019-05-16T16:09:13.347Z,54.80
2019-05-16T16:11:48.733Z,55.50
2019-05-16T16:14:23.227Z,55.10
2019-05-16T16:17:06.733Z,55.50
2019-05-16T16:19:38.293Z,56.60
2019-05-16T16:22:07.753Z,56.40
2019-05-16T16:24:39.644Z,57.00
2019-05-16T16:27:16.584Z,58.20
2019-05-16T16:29:44.897Z,56.50
2019-05-16T16:32:38.005Z,57.70
2019-05-16T16:35:07.937Z,57.10
2019-05-16T16:38:09.926Z,57.60
2019-05-16T16:40:47.795Z,56.90
2019-05-16T16:43:43.343Z,58.00
2019-05-16T16:46:27.112Z,57.40
2019-05-16T16:49:11.152Z,56.50
2019-05-16T16:51:43.049Z,56.30
2019-05-16T16:54:18.268Z,57.20
2019-05-16T16:56:49.902Z,56.50
2019-05-16T16:59:19.304Z,56.50
2019-05-16T17:01:48.064Z,57.50
2019-05-16T17:04:19.951Z,57.60
2019-05-16T17:06:51.309Z,58.60
2019-05-16T17:09:23.205Z,58.90
2019-05-16T17:12:01.724Z,58.30
2019-05-16T17:14:38.862Z,58.90
2019-05-16T17:17:46.637Z,59.40
2019-05-16T17:20:16.598Z,59.80
2019-05-16T17:22:57.265Z,61.10
2019-05-16T17:25:30.793Z,61.50
2019-05-16T17:28:07.930Z,61.80
2019-05-16T17:30:36.935Z,63.10
2019-05-16T17:33:10.226Z,62.90
2019-05-16T17:39:21.728Z,63.70
2019-05-16T17:41:54.996Z,63.90
2019-05-16T17:44:29.087Z,63.50
2019-05-16T17:47:08.444Z,63.40
2019-05-16T17:49:37.290Z,63.90
2019-05-16T17:52:16.561Z,64.10
2019-05-16T17:54:53.168Z,64.00
2019-05-16T17:57:20.441Z,64.20
2019-05-16T17:59:57.249Z,64.50
2019-05-16T18:02:37.784Z,64.40
2019-05-16T18:05:47.244Z,63.90
2019-05-16T18:08:38.991Z,64.70
2019-05-16T18:11:10.888Z,65.20
2019-05-16T18:13:43.232Z,65.40
2019-05-16T18:16:18.160Z,64.90
2019-05-16T18:19:10.855Z,65.30
2019-05-16T18:21:46.408Z,66.40
2019-05-16T18:24:19.421Z,65.40
2019-05-16T18:26:51.264Z,64.50
2019-05-16T18:29:19.897Z,65.30
2019-05-16T18:31:51.204Z,66.30
2019-05-16T18:34:29.163Z,65.90
2019-05-16T18:37:02.031Z,65.60
2019-05-16T18:39:38.313Z,66.00
2019-05-16T18:42:22.037Z,67.10
2019-05-16T18:48:23.708Z,67.70
2019-05-16T18:51:08.102Z,68.50
2019-05-16T18:53:42.909Z,68.80
2019-05-16T18:56:12.854Z,69.30
2019-05-16T18:58:46.441Z,69.50
2019-05-16T19:01:29.667Z,69.50
2019-05-16T19:04:46.549Z,70.10
2019-05-16T19:07:31.086Z,70.40
2019-05-16T19:10:26.967Z,70.80
2019-05-16T19:12:59.817Z,71.20
2019-05-16T19:15:48.953Z,71.90
2019-05-16T19:18:19.705Z,72.40
2019-05-16T19:20:51.325Z,73.50
2019-05-16T19:23:21.939Z,73.40
2019-05-16T19:26:00.284Z,74.00
2019-05-16T19:28:32.592Z,74.60
2019-05-16T19:31:03.591Z,73.00
2019-05-16T19:33:35.209Z,72.80
2019-05-16T19:36:07.308Z,72.60
2019-05-16T19:38:37.413Z,71.90
2019-05-16T19:41:08.091Z,71.30
2019-05-16T19:43:37.464Z,71.40
2019-05-16T19:46:09.008Z,72.10
2019-05-16T19:48:46.465Z,71.70
2019-05-16T19:51:21.205Z,71.80
2019-05-16T19:54:36.472Z,72.30
2019-05-16T19:57:37.207Z,71.80
2019-05-16T20:00:11.263Z,71.50
2019-05-16T20:03:08.702Z,72.00
2019-05-16T20:05:40.176Z,71.90
2019-05-16T20:08:12.640Z,72.50
2019-05-16T20:10:43.931Z,72.60
2019-05-16T20:14:04.390Z,73.30
2019-05-16T20:16:38.787Z,73.10
2019-05-16T20:19:13.536Z,74.00
2019-05-16T20:21:43.229Z,74.60
2019-05-16T20:24:16.733Z,74.60
2019-05-16T20:26:47.894Z,75.20
2019-05-16T20:29:27.820Z,76.10
2019-05-16T20:32:27.590Z,76.50
2019-05-16T20:35:02.768Z,76.10
2019-05-16T20:37:33.923Z,77.10
2019-05-16T20:40:08.447Z,78.30
2019-05-16T20:42:39.585Z,78.10
2019-05-16T20:45:17.000Z,78.50
2019-05-16T20:47:46.836Z,78.00
2019-05-16T20:50:20.916Z,78.60
2019-05-16T20:52:49.903Z,78.50
2019-05-16T20:55:21.194Z,78.10
2019-05-16T20:57:54.354Z,77.20
2019-05-16T21:00:26.805Z,78.20
2019-05-16T21:03:01.565Z,78.00
2019-05-16T21:05:31.249Z,77.90
2019-05-16T21:08:06.569Z,76.80
2019-05-16T21:10:36.609Z,77.20
2019-05-16T21:13:11.161Z,78.10
2019-05-16T21:15:41.978Z,76.70
2019-05-16T21:18:16.721Z,77.40
2019-05-16T21:20:52.025Z,79.20
2019-05-16T21:23:27.252Z,79.70
2019-05-16T21:25:57.153Z,79.50
2019-05-16T21:28:26.376Z,80.50
2019-05-16T21:30:57.376Z,80.30
2019-05-16T21:33:27.236Z,81.20
2019-05-16T21:36:02.836Z,81.70
2019-05-16T21:38:37.402Z,80.20
2019-05-16T21:41:26.981Z,80.30
2019-05-16T21:44:29.412Z,78.20
2019-05-16T21:47:01.797Z,78.40
2019-05-16T21:49:56.838Z,78.50
2019-05-16T21:52:50.074Z,78.70
2019-05-16T21:55:21.517Z,78.30
2019-05-16T21:57:53.175Z,77.80
2019-05-16T22:00:30.664Z,78.50
2019-05-16T22:03:02.492Z,78.40
2019-05-16T22:05:33.800Z,78.70
2019-05-16T22:08:07.220Z,79.10
2019-05-16T22:10:41.518Z,79.10
2019-05-16T22:13:10.430Z,79.20
2019-05-16T22:15:46.451Z,80.00
2019-05-16T22:18:18.431Z,80.10
2019-05-16T22:20:52.006Z,79.90
2019-05-16T22:23:27.224Z,80.70
2019-05-16T22:25:57.001Z,80.40
2019-05-16T22:28:31.523Z,80.80
2019-05-16T22:31:00.228Z,81.40
2019-05-16T22:33:31.627Z,81.80
2019-05-16T22:36:02.216Z,82.40
2019-05-16T22:38:40.221Z,82.60
2019-05-16T22:41:17.086Z,83.00
2019-05-16T22:43:46.741Z,83.50
2019-05-16T22:46:21.369Z,83.70
2019-05-16T22:48:50.031Z,83.80
2019-05-16T22:51:22.419Z,84.00
2019-05-16T22:53:50.234Z,84.30
2019-05-16T22:56:22.414Z,84.60
2019-05-16T22:58:57.428Z,85.50
2019-05-16T23:01:27.159Z,85.70
2019-05-16T23:03:58.405Z,86.20
2019-05-16T23:06:31.477Z,86.60
2019-05-16T23:09:04.209Z,86.80
2019-05-16T23:11:36.316Z,87.70
2019-05-16T23:14:08.028Z,86.70
2019-05-16T23:16:37.826Z,86.90
2019-05-16T23:19:14.035Z,86.80
2019-05-16T23:21:47.256Z,87.90
2019-05-16T23:24:17.422Z,88.30
2019-05-16T23:26:51.355Z,89.20
2019-05-16T23:29:22.427Z,89.40
2019-05-16T23:32:00.040Z,89.50
2019-05-16T23:34:29.777Z,89.70
2019-05-16T23:37:27.675Z,89.40
2019-05-16T23:39:59.555Z,89.80
2019-05-16T23:42:30.159Z,89.80
2019-05-16T23:45:18.036Z,89.50
2019-05-16T23:48:18.312Z,89.80
2019-05-16T23:50:51.576Z,90.50
2019-05-16T23:53:31.501Z,90.40
2019-05-16T23:56:18.670Z,90.60
2019-05-16T23:58:56.842Z,90.90
